Cape Vincent, New York
Current Conditions -  °F | °C
As of 8:00 PM on Wednesday 22 Oct 2014 (Local Time) from CYGK Reporting Station
Scattered Clouds Scattered Clouds  
Wind Chill: 44°   Ceiling: Unl
Heat Index: 48°   Visibility: 15mi
Dew Point: 41°   Wind: 10mph
Humidity: 76%   Direction: 10°N
Pressure: 30.2"   Gusts: NA
Location:  44.13°N, 76.33°W
Report Text: CYGK 230000Z 01009KT 15SM SCT065 09/05 A3020 RMK SC3 SLP228
Loading
Personal Weather Stations






























Interactive Weather Map
Tropical Storm Tracking
New forecast layout! Learn more

10-Day Weather Forecast

Advertisements
Track Severe Weather on mobile